Airport View

Enter AWOS ICAO identifier for current METAR.

ex. KFNL

K6L4 181210Z AUTO 17013G21KT 10SM OVC038 06/M10 A3016 RMK AO2

18 Jan 2020 12:12

Frequency: 119.375

Phone: 304-752-0814

Other Area AWOS: KI16 - KCRW - KSJS - KPBX

TAF KCRW 181124Z 1812/1912 12004KT P6SM VCSH OVC045 WS020/19040KT FM181400 17009G16KT 6SM -RA OVC035 FM181800 21014G19KT 3SM RA SCT009 OVC015 FM182200 23015G22KT P6SM -SHRA OVC014 FM190500 26016G21KT P6SM BKN020